Terminal Aerodrome Forecast
Issued by NWS Sterling, VA

Current Version | Previous Version | Graphics & Text | Print | Product List | Glossary On
Versions: 1 2 3 4 5 6 7 8 9 10 11 12 13 14 15 16 17 18 19 20 21 22 23 24 25 26 27 28
000
FTUS41 KLWX 160542
TAFDCA
TAF
KDCA 160542Z 1606/1712 22010G20KT P6SM BKN200
     FM161200 27009KT 6SM -SHRA OVC050 WS020/24035KT
     FM161400 28008KT P6SM OVC060
     FM161800 30009KT 6SM -SHRA OVC050
     FM162100 32016G26KT P6SM OVC040
     FM170400 34009KT P6SM FEW250=

USA.gov is the U.S. government's official web portal to all federal, state and local government web resources and services.